createdAt,value
2018-12-29T00:01:44.926Z,104.53
2018-12-29T00:04:14.780Z,121.10
2018-12-29T00:06:49.642Z,123.83
2018-12-29T00:09:20.587Z,114.40
2018-12-29T00:11:51.224Z,95.87
2018-12-29T00:14:21.487Z,81.60
2018-12-29T00:16:51.694Z,91.27
2018-12-29T00:19:22.027Z,80.97
2018-12-29T00:21:52.882Z,79.97
2018-12-29T00:24:22.422Z,65.30
2018-12-29T00:26:51.693Z,74.83
2018-12-29T00:29:21.766Z,253.93
2018-12-29T00:31:50.784Z,335.13
2018-12-29T00:34:20.399Z,125.73
2018-12-29T00:36:49.719Z,578.87
2018-12-29T00:39:18.970Z,426.00
2018-12-29T00:41:50.835Z,462.57
2018-12-29T00:44:20.892Z,222.03
2018-12-29T00:46:50.387Z,297.87
2018-12-29T00:49:19.634Z,218.63
2018-12-29T00:51:49.164Z,746.10
2018-12-29T00:54:19.258Z,238.63
2018-12-29T00:56:48.904Z,328.10
2018-12-29T00:59:19.567Z,239.27
2018-12-29T01:01:49.207Z,621.47
2018-12-29T01:04:18.148Z,476.03
2018-12-29T01:06:48.478Z,413.03
2018-12-29T01:09:17.777Z,214.83
2018-12-29T01:11:47.872Z,423.30
2018-12-29T01:14:18.581Z,442.87
2018-12-29T01:16:48.732Z,170.70
2018-12-29T01:19:17.785Z,354.03
2018-12-29T01:21:48.799Z,321.27
2018-12-29T01:24:21.470Z,423.03
2018-12-29T01:26:50.633Z,339.23
2018-12-29T01:29:19.823Z,485.67
2018-12-29T01:31:50.990Z,416.57
2018-12-29T01:34:21.427Z,324.80
2018-12-29T01:36:51.020Z,401.03
2018-12-29T01:39:19.737Z,507.63
2018-12-29T01:41:48.961Z,208.73
2018-12-29T01:44:18.107Z,201.93
2018-12-29T01:46:47.962Z,201.27
2018-12-29T01:49:18.944Z,345.67
2018-12-29T01:51:48.477Z,250.03
2018-12-29T01:54:19.344Z,176.43
2018-12-29T01:56:49.333Z,346.93
2018-12-29T01:59:20.398Z,335.77
2018-12-29T02:01:50.605Z,180.90
2018-12-29T02:04:21.365Z,95.57
2018-12-29T02:06:51.975Z,96.37
2018-12-29T02:09:21.798Z,64.90
2018-12-29T02:11:52.505Z,72.73
2018-12-29T02:14:21.709Z,68.00
2018-12-29T02:16:51.161Z,60.03
2018-12-29T02:19:22.330Z,77.10
2018-12-29T02:21:52.763Z,134.03
2018-12-29T02:24:23.458Z,114.67
2018-12-29T02:26:53.092Z,102.03
2018-12-29T02:29:22.550Z,159.77
2018-12-29T02:31:54.472Z,237.87
2018-12-29T02:34:22.977Z,121.30
2018-12-29T02:36:52.221Z,208.03
2018-12-29T02:39:20.937Z,197.27
2018-12-29T02:41:51.927Z,235.97
2018-12-29T02:44:22.278Z,290.63
2018-12-29T02:46:51.464Z,394.00
2018-12-29T02:49:21.497Z,323.83
2018-12-29T02:51:50.358Z,425.03
2018-12-29T02:54:20.309Z,252.13
2018-12-29T02:56:50.557Z,145.37
2018-12-29T02:59:20.237Z,338.07
2018-12-29T03:01:49.655Z,165.30
2018-12-29T03:04:20.197Z,300.57
2018-12-29T03:06:50.263Z,587.33
2018-12-29T03:09:20.550Z,166.47
2018-12-29T03:11:50.568Z,360.00
2018-12-29T03:14:20.112Z,378.10
2018-12-29T03:16:50.244Z,316.67
2018-12-29T03:19:19.700Z,274.63
2018-12-29T03:21:49.376Z,559.80
2018-12-29T03:24:18.330Z,289.33
2018-12-29T03:26:48.333Z,240.17
2018-12-29T03:29:21.393Z,331.83
2018-12-29T03:31:54.782Z,301.53
2018-12-29T03:34:24.559Z,185.93
2018-12-29T03:36:53.675Z,660.67
2018-12-29T03:39:24.516Z,697.77
2018-12-29T03:41:56.106Z,452.10
2018-12-29T03:44:26.013Z,624.83
2018-12-29T03:46:56.060Z,462.40
2018-12-29T03:49:25.940Z,612.13
2018-12-29T03:51:54.343Z,230.93
2018-12-29T03:54:25.622Z,309.40
2018-12-29T03:56:54.803Z,320.37
2018-12-29T03:59:25.851Z,309.90
2018-12-29T04:01:55.104Z,308.87
2018-12-29T04:04:25.382Z,271.10
2018-12-29T04:06:54.145Z,320.47
2018-12-29T04:09:36.487Z,341.20
2018-12-29T04:12:27.714Z,350.87
2018-12-29T04:14:57.125Z,481.97
2018-12-29T04:17:27.132Z,586.53
2018-12-29T04:19:55.523Z,382.70
2018-12-29T04:22:24.732Z,237.00
2018-12-29T04:24:56.561Z,262.63
2018-12-29T04:27:25.340Z,295.63
2018-12-29T04:29:55.936Z,713.37
2018-12-29T04:32:26.111Z,565.00
2018-12-29T04:34:56.748Z,620.80
2018-12-29T04:37:26.205Z,611.43
2018-12-29T04:39:55.393Z,466.17
2018-12-29T04:42:24.531Z,311.97
2018-12-29T04:44:54.073Z,540.17
2018-12-29T04:47:25.251Z,497.57
2018-12-29T04:49:55.888Z,398.77
2018-12-29T04:52:27.219Z,686.00
2018-12-29T04:54:56.698Z,824.00
2018-12-29T04:57:26.175Z,261.97
2018-12-29T04:59:56.236Z,249.30
2018-12-29T05:02:25.623Z,260.07
2018-12-29T05:04:55.234Z,280.13
2018-12-29T05:07:24.155Z,388.03
2018-12-29T05:09:53.203Z,639.60
2018-12-29T05:12:22.516Z,559.63
2018-12-29T05:14:51.945Z,642.87
2018-12-29T05:17:22.877Z,213.13
2018-12-29T05:19:53.450Z,201.23
2018-12-29T05:22:24.716Z,454.60
2018-12-29T05:24:54.250Z,605.30
2018-12-29T05:27:23.958Z,382.97
2018-12-29T05:29:55.089Z,685.90
2018-12-29T05:32:25.209Z,702.60
2018-12-29T05:34:56.423Z,561.93
2018-12-29T05:37:25.652Z,273.87
2018-12-29T05:39:55.931Z,354.83
2018-12-29T05:42:26.936Z,373.13
2018-12-29T05:44:57.043Z,319.70
2018-12-29T05:47:26.318Z,329.93
2018-12-29T05:49:56.175Z,402.97
2018-12-29T05:52:26.579Z,528.30
2018-12-29T05:54:56.706Z,563.50
2018-12-29T05:57:25.860Z,360.37
2018-12-29T05:59:55.471Z,437.47
2018-12-29T06:02:24.846Z,287.30
2018-12-29T06:04:54.628Z,249.27
2018-12-29T06:07:25.601Z,269.73
2018-12-29T06:09:55.086Z,602.27
2018-12-29T06:12:25.501Z,677.37
2018-12-29T06:14:55.281Z,305.67
2018-12-29T06:17:25.953Z,267.60
2018-12-29T06:19:55.048Z,200.87
2018-12-29T06:22:25.238Z,234.83
2018-12-29T06:24:54.878Z,172.60
2018-12-29T06:27:24.968Z,358.53
2018-12-29T06:29:56.581Z,213.20
2018-12-29T06:32:28.105Z,184.20
2018-12-29T06:34:57.167Z,160.93
2018-12-29T06:37:26.348Z,183.13
2018-12-29T06:39:56.865Z,315.87
2018-12-29T06:42:28.063Z,149.23
2018-12-29T06:44:57.298Z,159.83
2018-12-29T06:47:26.353Z,126.77
2018-12-29T06:49:57.353Z,244.40
2018-12-29T06:52:26.903Z,178.77
2018-12-29T06:54:57.753Z,507.00
2018-12-29T06:57:28.113Z,290.87
2018-12-29T06:59:57.941Z,371.23
2018-12-29T07:02:28.006Z,121.13
2018-12-29T07:04:59.337Z,105.67
2018-12-29T07:07:29.377Z,124.13
2018-12-29T07:09:59.384Z,618.23
2018-12-29T07:12:29.093Z,466.07
2018-12-29T07:14:59.769Z,885.07
2018-12-29T07:17:29.274Z,129.37
2018-12-29T07:19:58.759Z,513.30
2018-12-29T07:22:29.209Z,655.07
2018-12-29T07:25:00.193Z,425.30
2018-12-29T07:27:29.858Z,336.93
2018-12-29T07:30:00.593Z,146.60
2018-12-29T07:32:31.603Z,366.60
2018-12-29T07:35:02.240Z,452.20
2018-12-29T07:37:32.146Z,400.97
2018-12-29T07:40:03.225Z,582.10
2018-12-29T07:42:34.068Z,470.43
2018-12-29T07:45:03.769Z,486.93
2018-12-29T07:47:33.503Z,469.63
2018-12-29T07:50:04.068Z,347.73
2018-12-29T07:52:35.053Z,351.50
2018-12-29T07:55:05.253Z,171.40
2018-12-29T07:57:34.563Z,247.33
2018-12-29T08:00:05.017Z,305.27
2018-12-29T08:02:35.083Z,292.40
2018-12-29T08:05:05.898Z,270.77
2018-12-29T08:07:39.581Z,137.03
2018-12-29T08:10:08.493Z,133.53
2018-12-29T08:12:37.877Z,122.57
2018-12-29T08:15:07.391Z,125.87
2018-12-29T08:17:37.672Z,119.77
2018-12-29T08:20:08.188Z,131.90
2018-12-29T08:22:38.468Z,131.80
2018-12-29T08:25:09.577Z,104.70
2018-12-29T08:27:40.712Z,124.47
2018-12-29T08:30:10.619Z,112.00
2018-12-29T08:32:39.878Z,146.77
2018-12-29T08:35:09.991Z,143.00
2018-12-29T08:37:41.056Z,126.10
2018-12-29T08:40:10.265Z,145.07
2018-12-29T08:42:39.883Z,103.33
2018-12-29T08:45:10.031Z,135.53
2018-12-29T08:47:41.170Z,119.77
2018-12-29T08:50:13.280Z,125.57
2018-12-29T08:52:43.420Z,107.03
2018-12-29T08:55:13.037Z,96.73
2018-12-29T08:57:42.362Z,102.07
2018-12-29T09:00:12.170Z,105.83
2018-12-29T09:02:41.962Z,106.97
2018-12-29T09:05:11.523Z,79.90
2018-12-29T09:07:41.993Z,91.00
2018-12-29T09:10:12.100Z,92.93
2018-12-29T09:12:43.798Z,100.37
2018-12-29T09:15:13.111Z,80.10
2018-12-29T09:17:43.706Z,88.80
2018-12-29T09:20:12.693Z,73.00
2018-12-29T09:22:45.562Z,88.47
2018-12-29T09:25:15.573Z,87.23
2018-12-29T09:27:47.505Z,81.47
2018-12-29T09:30:17.766Z,87.80
2018-12-29T09:32:48.216Z,69.97
2018-12-29T09:35:18.607Z,72.30
2018-12-29T09:37:47.707Z,66.53
2018-12-29T09:40:16.976Z,71.47
2018-12-29T09:42:47.268Z,58.67
2018-12-29T09:45:15.771Z,48.17
2018-12-29T09:47:46.125Z,47.83
2018-12-29T09:50:17.822Z,53.83
2018-12-29T09:52:47.382Z,41.53
2018-12-29T09:55:18.588Z,45.10
2018-12-29T09:57:47.240Z,41.67
2018-12-29T10:00:16.611Z,39.83
2018-12-29T10:02:46.325Z,41.67
2018-12-29T10:05:16.110Z,34.67
2018-12-29T10:07:45.544Z,38.53
2018-12-29T10:10:14.282Z,36.83
2018-12-29T10:12:44.143Z,37.03
2018-12-29T10:15:14.275Z,36.53
2018-12-29T10:17:44.865Z,35.73
2018-12-29T10:20:15.232Z,37.57
2018-12-29T10:22:46.413Z,37.20
2018-12-29T10:25:15.635Z,37.27
2018-12-29T10:27:44.857Z,40.73
2018-12-29T10:30:14.968Z,44.03
2018-12-29T10:32:46.108Z,44.77
2018-12-29T10:35:16.287Z,36.77
2018-12-29T10:37:46.380Z,39.83
2018-12-29T10:40:16.888Z,42.87
2018-12-29T10:42:46.768Z,40.43
2018-12-29T10:45:17.582Z,39.17
2018-12-29T10:47:46.740Z,40.47
2018-12-29T10:50:16.905Z,41.90
2018-12-29T10:52:47.463Z,37.60
2018-12-29T10:55:18.067Z,37.83
2018-12-29T10:57:48.929Z,36.80
2018-12-29T11:00:18.232Z,38.30
2018-12-29T11:02:48.341Z,38.40
2018-12-29T11:05:17.608Z,38.70
2018-12-29T11:07:48.007Z,35.23
2018-12-29T11:10:18.259Z,35.37
2018-12-29T11:12:48.373Z,37.60
2018-12-29T11:15:20.293Z,36.93
2018-12-29T11:17:53.382Z,35.03
2018-12-29T11:20:23.033Z,33.53
2018-12-29T11:22:52.403Z,36.57
2018-12-29T11:25:23.486Z,36.97
2018-12-29T11:27:53.729Z,37.83
2018-12-29T11:30:23.559Z,36.43
2018-12-29T11:32:54.011Z,32.03
2018-12-29T11:35:28.797Z,36.10
2018-12-29T11:37:55.981Z,33.47
2018-12-29T11:40:26.590Z,38.53
2018-12-29T11:42:56.668Z,34.43
2018-12-29T11:45:27.036Z,33.10
2018-12-29T11:47:58.690Z,35.27
2018-12-29T11:50:27.885Z,32.47
2018-12-29T11:53:00.255Z,34.17
2018-12-29T11:55:28.758Z,34.50
2018-12-29T11:57:58.838Z,33.67
2018-12-29T12:00:29.658Z,35.33
2018-12-29T12:02:59.775Z,32.23
2018-12-29T12:05:32.217Z,30.67
2018-12-29T12:08:02.613Z,34.77
2018-12-29T12:10:33.440Z,33.63
2018-12-29T12:13:04.503Z,35.03
2018-12-29T12:15:34.362Z,35.60
2018-12-29T12:18:04.480Z,39.87
2018-12-29T12:20:36.454Z,33.90
2018-12-29T12:23:07.950Z,42.20
2018-12-29T12:25:37.747Z,43.90
2018-12-29T12:28:07.920Z,38.43
2018-12-29T12:30:41.391Z,43.37
2018-12-29T12:33:11.254Z,38.60
2018-12-29T12:35:43.435Z,40.57
2018-12-29T12:38:13.803Z,30.77
2018-12-29T12:40:45.311Z,31.47
2018-12-29T12:43:16.233Z,39.50
2018-12-29T12:45:48.133Z,32.40
2018-12-29T12:48:19.015Z,31.30
2018-12-29T12:50:49.276Z,32.00
2018-12-29T12:53:19.595Z,33.57
2018-12-29T12:55:50.128Z,32.80
2018-12-29T12:58:19.422Z,33.93
2018-12-29T13:00:50.746Z,36.07
2018-12-29T13:03:20.949Z,32.03
2018-12-29T13:05:50.520Z,31.70
2018-12-29T13:08:20.460Z,65.80
2018-12-29T13:10:50.097Z,41.43
2018-12-29T13:13:21.504Z,41.07
2018-12-29T13:15:53.680Z,34.27
2018-12-29T13:18:22.918Z,32.53
2018-12-29T13:20:51.840Z,32.17
2018-12-29T13:23:21.155Z,34.77
2018-12-29T13:25:51.609Z,33.83
2018-12-29T13:28:22.605Z,32.63
2018-12-29T13:30:52.775Z,33.53
2018-12-29T13:33:23.569Z,35.03
2018-12-29T13:35:53.834Z,39.47
2018-12-29T13:38:23.660Z,31.77
2018-12-29T13:40:52.977Z,34.60
2018-12-29T13:43:24.950Z,33.13
2018-12-29T13:45:54.146Z,33.63
2018-12-29T13:48:26.103Z,37.87
2018-12-29T13:50:57.441Z,33.27
2018-12-29T13:53:28.750Z,28.43
2018-12-29T13:55:58.759Z,29.00
2018-12-29T13:58:28.839Z,28.17
2018-12-29T14:00:59.936Z,32.83
2018-12-29T14:03:29.817Z,30.07
2018-12-29T14:06:00.129Z,32.77
2018-12-29T14:08:30.244Z,31.83
2018-12-29T14:10:59.410Z,33.67
2018-12-29T14:13:29.803Z,33.23
2018-12-29T14:16:00.372Z,39.50
2018-12-29T14:18:31.899Z,38.00
2018-12-29T14:21:02.026Z,34.07
2018-12-29T14:23:32.451Z,40.57
2018-12-29T14:26:04.550Z,39.30
2018-12-29T14:28:35.584Z,34.30
2018-12-29T14:31:06.641Z,35.83
2018-12-29T14:33:37.494Z,38.90
2018-12-29T14:36:08.619Z,35.07
2018-12-29T14:38:38.864Z,34.77
2018-12-29T14:41:09.797Z,35.97
2018-12-29T14:43:40.417Z,34.33
2018-12-29T14:46:10.562Z,32.77
2018-12-29T14:48:40.300Z,34.00
2018-12-29T14:51:11.849Z,36.93
2018-12-29T14:53:41.924Z,34.10
2018-12-29T14:56:12.069Z,41.17
2018-12-29T14:58:42.932Z,34.30
2018-12-29T15:01:14.559Z,36.57
2018-12-29T15:03:49.384Z,43.10
2018-12-29T15:06:23.740Z,38.77
2018-12-29T15:08:53.924Z,37.43
2018-12-29T15:11:24.460Z,40.33
2018-12-29T15:13:53.768Z,39.17
2018-12-29T15:16:25.809Z,41.40
2018-12-29T15:18:56.785Z,36.03
2018-12-29T15:21:27.789Z,42.27
2018-12-29T15:24:00.209Z,48.57
2018-12-29T15:26:32.262Z,43.33
2018-12-29T15:29:01.455Z,42.70
2018-12-29T15:31:32.518Z,41.03
2018-12-29T15:34:03.954Z,47.13
2018-12-29T15:36:34.547Z,50.03
2018-12-29T15:39:06.750Z,46.77
2018-12-29T15:41:37.291Z,49.83
2018-12-29T15:44:09.019Z,51.97
2018-12-29T15:46:39.857Z,51.73
2018-12-29T15:49:10.985Z,45.77
2018-12-29T15:51:40.794Z,51.80
2018-12-29T15:54:10.669Z,49.33
2018-12-29T15:56:41.743Z,43.23
2018-12-29T15:59:13.236Z,41.13
2018-12-29T16:01:43.941Z,44.13
2018-12-29T16:04:15.746Z,53.77
2018-12-29T16:06:47.512Z,70.10
2018-12-29T16:09:19.551Z,40.40
2018-12-29T16:11:49.987Z,45.77
2018-12-29T16:14:24.002Z,48.23
2018-12-29T16:16:54.372Z,53.60
2018-12-29T16:19:26.810Z,48.07
2018-12-29T16:21:56.252Z,66.83
2018-12-29T16:24:27.406Z,54.03
2018-12-29T16:26:56.457Z,47.20
2018-12-29T16:29:27.279Z,45.20
2018-12-29T16:31:57.639Z,47.90
2018-12-29T16:34:28.020Z,54.47
2018-12-29T16:36:58.082Z,56.23
2018-12-29T16:39:28.532Z,63.53
2018-12-29T16:41:58.189Z,57.83
2018-12-29T16:44:28.015Z,67.27
2018-12-29T16:46:58.267Z,59.63
2018-12-29T16:49:28.972Z,61.17
2018-12-29T16:52:00.538Z,65.83
2018-12-29T16:54:30.672Z,68.53
2018-12-29T16:57:01.709Z,66.47
2018-12-29T16:59:34.687Z,72.50
2018-12-29T17:02:04.502Z,68.80
2018-12-29T17:04:34.304Z,51.33
2018-12-29T17:07:04.223Z,61.97
2018-12-29T17:09:35.384Z,92.87
2018-12-29T17:12:08.880Z,59.03
2018-12-29T17:14:39.080Z,61.00
2018-12-29T17:17:09.510Z,60.03
2018-12-29T17:19:42.193Z,79.03
2018-12-29T17:22:12.814Z,65.30
2018-12-29T17:24:42.527Z,98.83
2018-12-29T17:27:12.682Z,60.70
2018-12-29T17:29:42.892Z,79.53
2018-12-29T17:32:12.852Z,63.03
2018-12-29T17:34:44.417Z,68.10
2018-12-29T17:37:15.058Z,56.17
2018-12-29T17:39:46.334Z,73.33
2018-12-29T17:42:15.866Z,73.77
2018-12-29T17:44:44.863Z,57.17
2018-12-29T17:47:15.715Z,84.90
2018-12-29T17:49:46.803Z,66.00
2018-12-29T17:52:16.648Z,59.47
2018-12-29T17:54:46.610Z,74.20
2018-12-29T17:57:17.027Z,79.97
2018-12-29T17:59:47.310Z,82.57
2018-12-29T18:02:16.297Z,175.40
2018-12-29T18:04:45.649Z,128.40
2018-12-29T18:07:15.712Z,95.57
2018-12-29T18:09:45.204Z,116.83
2018-12-29T18:12:15.362Z,80.07
2018-12-29T18:14:46.427Z,163.43
2018-12-29T18:17:18.038Z,89.70
2018-12-29T18:19:48.074Z,95.47
2018-12-29T18:22:19.920Z,103.17
2018-12-29T18:24:50.740Z,258.67
2018-12-29T18:27:20.651Z,162.77
2018-12-29T18:29:55.989Z,125.93
2018-12-29T18:32:25.907Z,191.53
2018-12-29T18:34:58.015Z,116.20
2018-12-29T18:37:29.466Z,87.80
2018-12-29T18:39:59.532Z,110.77
2018-12-29T18:42:31.707Z,85.60
2018-12-29T18:45:02.052Z,109.67
2018-12-29T18:47:31.131Z,112.47
2018-12-29T18:50:01.385Z,150.73
2018-12-29T18:52:30.742Z,390.50
2018-12-29T18:55:01.735Z,89.03
2018-12-29T18:57:31.835Z,203.57
2018-12-29T19:00:02.204Z,133.17
2018-12-29T19:02:33.016Z,122.87
2018-12-29T19:05:01.556Z,144.63
2018-12-29T19:07:31.763Z,71.77
2018-12-29T19:10:02.801Z,88.03
2018-12-29T19:12:33.375Z,90.40
2018-12-29T19:15:04.598Z,111.00
2018-12-29T19:17:35.094Z,119.27
2018-12-29T19:20:06.754Z,114.53
2018-12-29T19:22:36.091Z,117.10
2018-12-29T19:25:06.318Z,269.03
2018-12-29T19:27:39.447Z,232.03
2018-12-29T19:30:08.709Z,152.43
2018-12-29T19:32:39.859Z,382.77
2018-12-29T19:35:09.716Z,120.87
2018-12-29T19:37:40.175Z,533.63
2018-12-29T19:40:11.346Z,116.27
2018-12-29T19:42:41.336Z,239.93
2018-12-29T19:45:12.658Z,481.20
2018-12-29T19:47:43.130Z,267.80
2018-12-29T19:50:13.622Z,394.17
2018-12-29T19:52:43.943Z,125.70
2018-12-29T19:55:14.783Z,117.30
2018-12-29T19:57:45.103Z,145.70
2018-12-29T20:00:16.578Z,110.93
2018-12-29T20:02:45.993Z,153.60
2018-12-29T20:05:16.231Z,144.07
2018-12-29T20:07:47.494Z,343.63
2018-12-29T20:10:20.248Z,265.53
2018-12-29T20:12:50.970Z,254.87
2018-12-29T20:15:22.275Z,122.97
2018-12-29T20:17:52.766Z,154.13
2018-12-29T20:20:26.276Z,118.53
2018-12-29T20:22:58.566Z,113.97
2018-12-29T20:25:28.935Z,130.87
2018-12-29T20:27:58.640Z,191.93
2018-12-29T20:30:28.923Z,258.73
2018-12-29T20:33:00.568Z,276.27
2018-12-29T20:35:30.605Z,189.30
2018-12-29T20:38:01.129Z,156.03
2018-12-29T20:40:32.832Z,300.80
2018-12-29T20:43:01.864Z,483.47
2018-12-29T20:45:31.753Z,323.97
2018-12-29T20:48:01.331Z,275.43
2018-12-29T20:50:31.206Z,242.73
2018-12-29T20:53:03.114Z,204.17
2018-12-29T20:55:35.016Z,407.57
2018-12-29T20:58:05.063Z,239.20
2018-12-29T21:00:37.960Z,411.80
2018-12-29T21:03:08.505Z,121.73
2018-12-29T21:05:37.724Z,145.50
2018-12-29T21:08:07.168Z,256.37
2018-12-29T21:10:36.944Z,192.00
2018-12-29T21:13:07.204Z,127.43
2018-12-29T21:15:36.556Z,146.83
2018-12-29T21:18:06.033Z,98.63
2018-12-29T21:20:36.523Z,118.77
2018-12-29T21:23:06.553Z,93.17
2018-12-29T21:25:36.325Z,115.43
2018-12-29T21:28:06.708Z,169.97
2018-12-29T21:30:38.649Z,169.40
2018-12-29T21:33:17.075Z,169.63
2018-12-29T21:35:48.951Z,143.43
2018-12-29T21:38:18.453Z,333.60
2018-12-29T21:40:49.745Z,216.20
2018-12-29T21:43:19.443Z,310.00
2018-12-29T21:45:49.316Z,183.00
2018-12-29T21:48:19.008Z,307.53
2018-12-29T21:50:50.586Z,289.07
2018-12-29T21:53:20.288Z,85.60
2018-12-29T21:55:50.354Z,115.27
2018-12-29T21:58:20.874Z,104.73
2018-12-29T22:00:52.606Z,88.27
2018-12-29T22:03:24.258Z,158.00
2018-12-29T22:05:57.873Z,90.63
2018-12-29T22:08:31.090Z,75.20
2018-12-29T22:11:03.641Z,131.70
2018-12-29T22:13:33.274Z,113.43
2018-12-29T22:16:06.156Z,160.10
2018-12-29T22:18:36.203Z,101.73
2018-12-29T22:21:06.199Z,90.40
2018-12-29T22:23:38.937Z,76.60
2018-12-29T22:26:08.536Z,64.33
2018-12-29T22:28:38.899Z,57.50
2018-12-29T22:31:12.017Z,51.57
2018-12-29T22:33:41.793Z,51.13
2018-12-29T22:36:10.842Z,46.47
2018-12-29T22:38:40.744Z,49.40
2018-12-29T22:41:09.522Z,54.73
2018-12-29T22:43:38.005Z,56.57
2018-12-29T22:46:07.625Z,45.30
2018-12-29T22:48:37.561Z,59.67
2018-12-29T22:51:08.086Z,59.13
2018-12-29T22:53:39.425Z,64.67
2018-12-29T22:56:09.827Z,68.23
2018-12-29T22:58:41.225Z,67.07
2018-12-29T23:01:11.228Z,69.53
2018-12-29T23:03:43.396Z,97.70
2018-12-29T23:06:15.696Z,82.20
2018-12-29T23:08:44.897Z,101.67
2018-12-29T23:11:14.704Z,96.77
2018-12-29T23:13:44.169Z,133.00
2018-12-29T23:16:14.783Z,129.47
2018-12-29T23:18:45.178Z,187.97
2018-12-29T23:21:15.075Z,111.63
2018-12-29T23:23:45.654Z,153.80
2018-12-29T23:26:16.266Z,116.03
2018-12-29T23:28:45.864Z,101.33
2018-12-29T23:31:16.284Z,124.20
2018-12-29T23:33:46.115Z,156.90
2018-12-29T23:36:16.821Z,243.23
2018-12-29T23:38:45.927Z,148.13
2018-12-29T23:41:19.164Z,79.77
2018-12-29T23:43:48.686Z,98.67
2018-12-29T23:46:19.215Z,105.90
2018-12-29T23:48:50.720Z,164.57
2018-12-29T23:51:22.311Z,111.97
2018-12-29T23:53:53.400Z,124.90
2018-12-29T23:56:23.603Z,62.53
2018-12-29T23:58:52.962Z,62.97
